Time;durP1;ratioP1;P1;durP2;ratioP2;P2;SDS_P1;SDS_P2;PMS_P1;PMS_P2;Temp;Humidity;BMP_temperature;BMP_pressure;BME280_temperature;BME280_humidity;BME280_pressure;Samples;Min_cycle;Max_cycle;Signal;HPM_P1;HPM_P2
2023/10/11 00:03:17;;;;;;;14.20;7.13;;;;;;;;;;7363126;19;20003;-76
2023/10/11 00:05:47;;;;;;;16.58;7.38;;;;;;;;;;7395075;19;20011;-77
2023/10/11 00:08:17;;;;;;;18.52;6.90;;;;;;;;;;7374195;19;20007;-77
2023/10/11 00:10:53;;;;;;;13.65;7.38;;;;;;;;;;7364505;19;20034;-77
2023/10/11 00:13:20;;;;;;;16.42;7.57;;;;;;;;;;7362961;19;20011;-77
2023/10/11 00:15:49;;;;;;;13.82;8.23;;;;;;;;;;7368244;19;20018;-77
2023/10/11 00:18:17;;;;;;;14.63;7.90;;;;;;;;;;7367464;19;20014;-78
2023/10/11 00:23:08;;;;;;;16.10;8.02;;;;;;;;;;7380856;19;20022;-76
2023/10/11 00:25:33;;;;;;;20.77;10.02;;;;;;;;;;7384369;19;20002;-77
2023/10/11 00:27:59;;;;;;;18.83;7.85;;;;;;;;;;7368129;19;20064;-77
2023/10/11 00:30:30;;;;;;;22.80;8.48;;;;;;;;;;7366581;19;20010;-76
2023/10/11 00:32:55;;;;;;;;;;;;;;;;;;7365943;19;20020;-77
2023/10/11 00:35:24;;;;;;;16.85;9.13;;;;;;;;;;7389300;19;20393;-76
2023/10/11 00:37:54;;;;;;;17.27;9.40;;;;;;;;;;7366895;19;20042;-77
2023/10/11 00:40:28;;;;;;;15.52;8.50;;;;;;;;;;7365201;19;20018;-78
2023/10/11 00:42:57;;;;;;;18.35;7.72;;;;;;;;;;7364843;19;20015;-77
2023/10/11 00:45:25;;;;;;;15.27;8.30;;;;;;;;;;7365903;19;20131;-78
2023/10/11 00:47:52;;;;;;;15.40;7.97;;;;;;;;;;7369935;19;20527;-76
2023/10/11 00:50:21;;;;;;;14.13;7.88;;;;;;;;;;7395338;19;20029;-77
2023/10/11 00:52:47;;;;;;;13.38;7.03;;;;;;;;;;7371311;19;20006;-76
2023/10/11 00:55:21;;;;;;;16.85;8.60;;;;;;;;;;7372867;19;20007;-77
2023/10/11 00:57:49;;;;;;;15.27;8.20;;;;;;;;;;7384810;19;20348;-77
2023/10/11 01:00:21;;;;;;;18.45;8.55;;;;;;;;;;7402869;19;20016;-77
2023/10/11 01:02:48;;;;;;;15.45;9.20;;;;;;;;;;7415555;19;20035;-81
2023/10/11 01:05:14;;;;;;;21.27;9.30;;;;;;;;;;7411785;19;20007;-77
2023/10/11 01:07:40;;;;;;;17.63;9.20;;;;;;;;;;7382465;19;20352;-76
2023/10/11 01:10:07;;;;;;;18.77;9.65;;;;;;;;;;7382014;19;20010;-77
2023/10/11 01:12:32;;;;;;;18.20;9.70;;;;;;;;;;7373253;19;20002;-77
2023/10/11 01:14:58;;;;;;;16.45;9.68;;;;;;;;;;7369992;19;19999;-77
2023/10/11 01:17:33;;;;;;;17.88;9.02;;;;;;;;;;7395557;19;20002;-77
2023/10/11 01:19:59;;;;;;;15.32;9.15;;;;;;;;;;7374399;19;20060;-77
2023/10/11 01:22:27;;;;;;;16.85;9.63;;;;;;;;;;7372082;19;20006;-77
2023/10/11 01:24:54;;;;;;;18.42;10.73;;;;;;;;;;7372354;19;20006;-77
2023/10/11 01:27:30;;;;;;;22.80;10.13;;;;;;;;;;7373948;19;20031;-77
2023/10/11 01:29:55;;;;;;;20.55;10.10;;;;;;;;;;7373975;19;20014;-77
2023/10/11 01:32:20;;;;;;;19.58;9.43;;;;;;;;;;7393784;19;20007;-77
2023/10/11 01:34:46;;;;;;;15.30;8.77;;;;;;;;;;7369620;19;20006;-77
2023/10/11 01:37:11;;;;;;;15.25;8.65;;;;;;;;;;7373411;19;20026;-77
2023/10/11 01:39:36;;;;;;;18.13;9.00;;;;;;;;;;7372225;19;20424;-77
2023/10/11 01:42:02;;;;;;;16.60;9.10;;;;;;;;;;7372221;19;20030;-77
2023/10/11 01:44:29;;;;;;;20.77;8.90;;;;;;;;;;7392971;19;20002;-77
2023/10/11 01:46:54;;;;;;;18.17;8.98;;;;;;;;;;7371142;19;20464;-77
2023/10/11 01:49:19;;;;;;;19.33;9.10;;;;;;;;;;7370917;19;20016;-77
2023/10/11 01:51:48;;;;;;;22.35;9.32;;;;;;;;;;7371349;19;20060;-77
2023/10/11 01:54:18;;;;;;;21.58;9.50;;;;;;;;;;7369959;19;20002;-77
2023/10/11 01:56:45;;;;;;;17.42;9.27;;;;;;;;;;7393995;19;20005;-77
2023/10/11 01:59:12;;;;;;;18.90;8.95;;;;;;;;;;7367945;19;19995;-77
2023/10/11 02:01:40;;;;;;;17.13;9.10;;;;;;;;;;7367631;19;20130;-76
2023/10/11 02:04:16;;;;;;;15.48;9.52;;;;;;;;;;7367081;19;20421;-77
2023/10/11 02:06:42;;;;;;;16.80;9.35;;;;;;;;;;7370473;19;20019;-77
2023/10/11 02:09:09;;;;;;;16.88;8.98;;;;;;;;;;7369449;19;20004;-77
2023/10/11 02:11:35;;;;;;;14.65;9.00;;;;;;;;;;7390245;19;20495;-78
2023/10/11 02:14:00;;;;;;;15.13;7.93;;;;;;;;;;7367653;19;20002;-77
2023/10/11 02:16:32;;;;;;;14.88;8.27;;;;;;;;;;7369930;19;20006;-76
2023/10/11 02:19:00;;;;;;;18.17;8.38;;;;;;;;;;7369969;19;20007;-78
2023/10/11 02:21:36;;;;;;;19.80;9.13;;;;;;;;;;7369027;19;20011;-76
2023/10/11 02:24:04;;;;;;;17.02;9.75;;;;;;;;;;7367233;19;20010;-77
2023/10/11 02:26:34;;;;;;;25.63;10.35;;;;;;;;;;7392312;19;20074;-77
2023/10/11 02:29:10;;;;;;;17.35;9.45;;;;;;;;;;7369947;19;19998;-77
2023/10/11 02:31:36;;;;;;;16.25;8.98;;;;;;;;;;7370944;19;20217;-76
2023/10/11 02:34:12;;;;;;;22.70;10.27;;;;;;;;;;7372612;19;20033;-77
2023/10/11 02:36:42;;;;;;;29.05;11.48;;;;;;;;;;7372077;19;20019;-77
2023/10/11 02:39:07;;;;;;;22.73;11.60;;;;;;;;;;7371012;19;20425;-77
2023/10/11 02:41:32;;;;;;;27.25;11.65;;;;;;;;;;7391825;19;20017;-76
2023/10/11 02:44:02;;;;;;;22.98;10.68;;;;;;;;;;7369244;19;20017;-77
2023/10/11 02:46:27;;;;;;;27.35;12.20;;;;;;;;;;7369469;19;20426;-77
2023/10/11 02:49:05;;;;;;;26.23;11.95;;;;;;;;;;7370264;19;20017;-78
2023/10/11 02:51:35;;;;;;;26.00;11.85;;;;;;;;;;7369506;19;20123;-78
2023/10/11 02:54:04;;;;;;;20.92;10.82;;;;;;;;;;7368673;19;20010;-76
2023/10/11 02:56:46;;;;;;;23.90;11.73;;;;;;;;;;7392263;19;20003;-76
2023/10/11 02:59:19;;;;;;;23.75;11.45;;;;;;;;;;7369149;19;20102;-77
2023/10/11 03:01:46;;;;;;;24.40;11.93;;;;;;;;;;7367354;19;20345;-76
2023/10/11 03:04:15;;;;;;;24.63;11.73;;;;;;;;;;7367711;19;20681;-77
2023/10/11 03:06:47;;;;;;;22.65;12.50;;;;;;;;;;7371098;19;19994;-76
2023/10/11 03:09:12;;;;;;;29.10;12.88;;;;;;;;;;7401347;19;20023;-76
2023/10/11 03:11:45;;;;;;;24.52;12.73;;;;;;;;;;7419680;19;19995;-77
2023/10/11 03:14:12;;;;;;;23.40;12.38;;;;;;;;;;7381370;19;20006;-77
2023/10/11 03:16:42;;;;;;;23.02;12.30;;;;;;;;;;7368691;19;20082;-77
2023/10/11 03:19:10;;;;;;;25.38;12.20;;;;;;;;;;7369207;19;20003;-77
2023/10/11 03:21:35;;;;;;;26.80;12.40;;;;;;;;;;7369383;19;20074;-77
2023/10/11 03:24:04;;;;;;;24.55;11.98;;;;;;;;;;7367928;19;19999;-76
2023/10/11 03:28:58;;;;;;;22.27;12.13;;;;;;;;;;7369175;19;20009;-77
2023/10/11 03:31:31;;;;;;;23.33;11.88;;;;;;;;;;7368164;19;20405;-76
2023/10/11 03:34:10;;;;;;;24.70;11.75;;;;;;;;;;7366157;19;20002;-77
2023/10/11 03:36:43;;;;;;;24.08;12.95;;;;;;;;;;7369449;19;20011;-77
2023/10/11 03:39:09;;;;;;;23.58;11.77;;;;;;;;;;7368884;19;20037;-77
2023/10/11 03:41:36;;;;;;;24.13;12.35;;;;;;;;;;7389944;19;20007;-78
2023/10/11 03:44:09;;;;;;;24.17;11.63;;;;;;;;;;7367576;19;20456;-77
2023/10/11 03:46:35;;;;;;;21.83;11.85;;;;;;;;;;7368534;19;20066;-77
2023/10/11 03:49:14;;;;;;;21.77;11.70;;;;;;;;;;7367232;19;20075;-77
2023/10/11 03:51:43;;;;;;;20.88;11.43;;;;;;;;;;7368132;19;20560;-77
2023/10/11 03:54:09;;;;;;;26.10;11.90;;;;;;;;;;7365669;19;20023;-77
2023/10/11 03:56:35;;;;;;;22.52;12.02;;;;;;;;;;7390229;19;19998;-77
2023/10/11 03:59:00;;;;;;;23.30;12.27;;;;;;;;;;7369316;19;20024;-77
2023/10/11 04:01:28;;;;;;;24.80;12.25;;;;;;;;;;7370406;19;20471;-78
2023/10/11 04:03:53;;;;;;;25.88;13.00;;;;;;;;;;7369151;19;20006;-77
2023/10/11 04:06:19;;;;;;;25.08;12.70;;;;;;;;;;7365773;19;20014;-77
2023/10/11 04:09:00;;;;;;;30.02;13.88;;;;;;;;;;7387723;19;20161;-77
2023/10/11 04:11:37;;;;;;;23.35;12.98;;;;;;;;;;7366916;19;20007;-77
2023/10/11 04:14:03;;;;;;;25.75;12.70;;;;;;;;;;7365131;19;20003;-77
2023/10/11 04:16:29;;;;;;;23.70;12.88;;;;;;;;;;7366190;19;20058;-77
2023/10/11 04:18:54;;;;;;;23.52;12.55;;;;;;;;;;7367008;19;20010;-77
2023/10/11 04:23:53;;;;;;;23.15;12.32;;;;;;;;;;7370587;19;20030;-78
2023/10/11 04:26:33;;;;;;;25.42;13.05;;;;;;;;;;7396879;19;19994;-77
2023/10/11 04:29:18;;;;;;;25.70;13.65;;;;;;;;;;7374589;19;20037;-77
2023/10/11 04:34:31;;;;;;;26.67;13.85;;;;;;;;;;7372335;19;20480;-76
2023/10/11 04:36:57;;;;;;;24.10;12.07;;;;;;;;;;7375017;19;20471;-77
2023/10/11 04:39:28;;;;;;;25.75;12.93;;;;;;;;;;7372853;19;20014;-77
2023/10/11 04:41:57;;;;;;;25.88;12.50;;;;;;;;;;7372987;19;20051;-77
2023/10/11 04:44:23;;;;;;;22.02;12.30;;;;;;;;;;7395638;19;20010;-77
2023/10/11 04:46:58;;;;;;;24.60;12.48;;;;;;;;;;7373728;19;20017;-77
2023/10/11 04:49:25;;;;;;;23.75;12.73;;;;;;;;;;7375770;19;20051;-77
2023/10/11 04:51:55;;;;;;;22.23;12.20;;;;;;;;;;7377405;19;20432;-76
2023/10/11 04:54:21;;;;;;;23.70;12.35;;;;;;;;;;7377733;19;20032;-77
2023/10/11 05:02:16;;;;;;;24.42;12.77;;;;;;;;;;7374413;19;20030;-76
2023/10/11 05:04:44;;;;;;;31.27;13.60;;;;;;;;;;7361362;19;20013;-76
2023/10/11 05:07:12;;;;;;;26.85;13.77;;;;;;;;;;7393377;19;20130;-76
2023/10/11 05:09:38;;;;;;;29.75;13.32;;;;;;;;;;7391929;19;20007;-75
2023/10/11 05:12:12;;;;;;;30.77;14.95;;;;;;;;;;7391342;19;20460;-77
2023/10/11 05:19:45;;;;;;;26.63;14.70;;;;;;;;;;7368363;19;20395;-75
2023/10/11 05:22:18;;;;;;;23.15;12.88;;;;;;;;;;7370388;19;20383;-77
2023/10/11 05:27:12;;;;;;;23.00;12.10;;;;;;;;;;7372617;19;20031;-76
2023/10/11 05:30:06;;;;;;;20.75;10.52;;;;;;;;;;7394472;19;20011;-77
2023/10/11 05:32:28;;;;;;;21.25;10.88;;;;;;;;;;7371993;19;20058;-76
2023/10/11 05:51:14;;;;;;;27.70;12.80;;;;;;;;;;7372008;19;20024;-70
2023/10/11 05:53:42;;;;;;;38.10;19.50;;;;;;;;;;7388251;19;20010;-70
2023/10/11 05:56:20;;;;;;;22.33;12.07;;;;;;;;;;7370089;19;20034;-70
2023/10/11 05:58:46;;;;;;;26.17;12.02;;;;;;;;;;7371319;19;20010;-70
2023/10/11 06:01:13;;;;;;;25.60;12.70;;;;;;;;;;7370531;19;20010;-78
2023/10/11 06:03:39;;;;;;;22.10;13.07;;;;;;;;;;7368527;19;20598;-77
2023/10/11 06:08:48;;;;;;;36.25;14.57;;;;;;;;;;7374916;19;20884;-77
2023/10/11 06:11:15;;;;;;;33.58;14.43;;;;;;;;;;7391897;19;20066;-77
2023/10/11 06:13:43;;;;;;;30.17;15.02;;;;;;;;;;7369128;19;20040;-77
2023/10/11 06:16:13;;;;;;;36.53;13.85;;;;;;;;;;7371897;19;20015;-77
2023/10/11 06:18:39;;;;;;;41.65;14.43;;;;;;;;;;7371123;19;20408;-77
2023/10/11 06:21:18;;;;;;;36.53;14.60;;;;;;;;;;7371052;19;20027;-77
2023/10/11 06:23:48;;;;;;;36.03;15.73;;;;;;;;;;7390602;19;20015;-77
2023/10/11 06:29:08;;;;;;;29.65;15.77;;;;;;;;;;7370973;19;20085;-78
2023/10/11 06:31:39;;;;;;;30.52;15.95;;;;;;;;;;7369566;19;20007;-77
2023/10/11 06:34:15;;;;;;;34.90;16.25;;;;;;;;;;7367820;19;19998;-76
2023/10/11 06:36:42;;;;;;;32.50;15.63;;;;;;;;;;7367266;19;20548;-76
2023/10/11 06:39:33;;;;;;;30.92;15.82;;;;;;;;;;7368692;19;19996;-77
2023/10/11 06:41:52;;;;;;;30.73;15.93;;;;;;;;;;7365918;19;20003;-77
2023/10/11 06:44:18;;;;;;;27.02;15.02;;;;;;;;;;7387415;19;19999;-77
2023/10/11 06:46:47;;;;;;;26.88;14.45;;;;;;;;;;7364484;19;20360;-77
2023/10/11 06:49:14;;;;;;;28.48;14.30;;;;;;;;;;7368771;19;20030;-77
2023/10/11 06:51:41;;;;;;;27.58;14.63;;;;;;;;;;7370185;19;20017;-77
2023/10/11 06:54:07;;;;;;;30.77;16.77;;;;;;;;;;7369302;19;20011;-76
2023/10/11 06:56:32;;;;;;;29.58;14.40;;;;;;;;;;7393413;19;20009;-77
2023/10/11 06:59:00;;;;;;;31.75;14.13;;;;;;;;;;7370543;19;19998;-77
2023/10/11 07:01:30;;;;;;;25.17;13.95;;;;;;;;;;7372904;19;20330;-76
2023/10/11 07:03:57;;;;;;;29.63;14.18;;;;;;;;;;7391917;19;20054;-75
2023/10/11 07:06:22;;;;;;;30.98;12.82;;;;;;;;;;7397004;19;20002;-76
2023/10/11 07:08:52;;;;;;;34.03;12.57;;;;;;;;;;7391187;19;20062;-78
2023/10/11 07:11:41;;;;;;;31.27;12.17;;;;;;;;;;7397028;19;20002;-77
2023/10/11 07:14:14;;;;;;;24.05;11.98;;;;;;;;;;7371979;19;20748;-77
2023/10/11 07:16:42;;;;;;;22.85;10.90;;;;;;;;;;7370288;19;20017;-76
2023/10/11 07:19:09;;;;;;;19.70;9.68;;;;;;;;;;7369637;19;20031;-77
2023/10/11 07:21:51;;;;;;;24.65;10.20;;;;;;;;;;7370242;19;20037;-77
2023/10/11 07:24:31;;;;;;;22.38;10.02;;;;;;;;;;7367137;19;20015;-76
2023/10/11 07:27:08;;;;;;;23.90;10.25;;;;;;;;;;7369002;19;20806;-77
2023/10/11 07:29:35;;;;;;;18.27;9.07;;;;;;;;;;7390913;19;20452;-76
2023/10/11 07:32:02;;;;;;;20.25;9.70;;;;;;;;;;7368332;19;20583;-76
2023/10/11 07:34:27;;;;;;;20.80;8.73;;;;;;;;;;7366976;19;20398;-76
2023/10/11 07:36:52;;;;;;;30.00;10.02;;;;;;;;;;7369320;19;20015;-76
2023/10/11 07:39:25;;;;;;;;;;;;;;;;;;;;;
2023/10/11 07:41:52;;;;;;;20.38;8.82;;;;;;;;;;7368201;19;20024;-76
2023/10/11 07:44:18;;;;;;;23.38;8.57;;;;;;;;;;7389527;19;20464;-76
2023/10/11 07:46:48;;;;;;;31.42;10.95;;;;;;;;;;7367944;19;20074;-77
2023/10/11 07:49:22;;;;;;;25.90;8.25;;;;;;;;;;7369221;19;20029;-77
2023/10/11 07:51:52;;;;;;;20.35;7.78;;;;;;;;;;7368639;19;20385;-76
2023/10/11 07:54:19;;;;;;;22.10;7.32;;;;;;;;;;7364999;19;20007;-77
2023/10/11 07:56:56;;;;;;;16.38;7.28;;;;;;;;;;7388328;19;20539;-77
2023/10/11 07:59:26;;;;;;;15.13;6.95;;;;;;;;;;7368398;19;20002;-76
2023/10/11 08:01:59;;;;;;;;;;;;;;;;;;7367769;19;20033;-77
2023/10/11 08:04:29;;;;;;;18.45;6.57;;;;;;;;;;7367192;19;19922;-76
2023/10/11 08:07:02;;;;;;;15.65;6.70;;;;;;;;;;7367898;19;20025;-76
2023/10/11 08:09:48;;;;;;;15.43;6.40;;;;;;;;;;7366785;19;20011;-76
2023/10/11 08:12:15;;;;;;;18.88;7.18;;;;;;;;;;7366439;19;20392;-77
2023/10/11 08:14:45;;;;;;;16.38;7.05;;;;;;;;;;7388858;19;20018;-77
2023/10/11 08:17:15;;;;;;;16.10;6.72;;;;;;;;;;7367492;19;20022;-76
2023/10/11 08:19:44;;;;;;;14.27;6.47;;;;;;;;;;7365652;19;20007;-77
2023/10/11 08:22:16;;;;;;;13.02;6.60;;;;;;;;;;7365412;19;20301;-77
2023/10/11 08:24:50;;;;;;;13.80;6.55;;;;;;;;;;7366712;19;20002;-77
2023/10/11 08:29:54;;;;;;;16.13;6.78;;;;;;;;;;7367859;19;20062;-77
2023/10/11 08:32:25;;;;;;;17.60;7.50;;;;;;;;;;7388710;19;20010;-77
2023/10/11 08:34:51;;;;;;;14.00;6.38;;;;;;;;;;7364603;19;20078;-77
2023/10/11 08:37:17;;;;;;;23.92;7.30;;;;;;;;;;7368367;19;20011;-77
2023/10/11 08:39:44;;;;;;;12.45;6.43;;;;;;;;;;7366281;19;20514;-76
2023/10/11 08:42:16;;;;;;;13.63;6.35;;;;;;;;;;7366997;19;20010;-77
2023/10/11 08:44:44;;;;;;;14.00;6.75;;;;;;;;;;7392951;19;20006;-77
2023/10/11 08:47:13;;;;;;;11.00;6.15;;;;;;;;;;7400316;19;20014;-76
2023/10/11 08:49:48;;;;;;;14.30;6.70;;;;;;;;;;7395461;19;20011;-77
2023/10/11 08:52:18;;;;;;;14.32;6.68;;;;;;;;;;7379800;19;20017;-76
2023/10/11 08:54:44;;;;;;;15.40;6.97;;;;;;;;;;7366479;19;20027;-77
2023/10/11 08:57:13;;;;;;;17.00;6.25;;;;;;;;;;7367248;19;20007;-77
2023/10/11 09:00:17;;;;;;;13.65;6.35;;;;;;;;;;7389135;19;20010;-76
2023/10/11 09:02:48;;;;;;;17.35;7.57;;;;;;;;;;7258334;19;2004541;-76
2023/10/11 09:05:29;;;;;;;17.73;6.78;;;;;;;;;;7391239;19;20074;-76
2023/10/11 09:07:55;;;;;;;16.25;7.28;;;;;;;;;;7365521;19;20082;-76
2023/10/11 09:10:28;;;;;;;12.85;6.50;;;;;;;;;;7372134;19;19999;-76
2023/10/11 09:12:56;;;;;;;14.38;6.07;;;;;;;;;;7371722;19;20082;-76
2023/10/11 09:15:23;;;;;;;16.75;6.07;;;;;;;;;;7379016;19;20047;-76
2023/10/11 09:17:50;;;;;;;15.02;6.25;;;;;;;;;;7384853;19;20030;-76
2023/10/11 09:20:23;;;;;;;14.98;6.60;;;;;;;;;;7406443;19;20010;-77
2023/10/11 09:22:52;;;;;;;18.30;6.95;;;;;;;;;;7374978;19;20041;-76
2023/10/11 09:25:33;;;;;;;14.70;6.47;;;;;;;;;;7372664;19;20010;-77
2023/10/11 09:27:59;;;;;;;14.77;6.53;;;;;;;;;;7373611;19;20007;-76
2023/10/11 09:30:27;;;;;;;12.27;6.20;;;;;;;;;;7372832;19;20021;-77
2023/10/11 09:32:59;;;;;;;14.10;6.20;;;;;;;;;;7370948;19;20310;-77
2023/10/11 09:35:27;;;;;;;18.15;6.85;;;;;;;;;;7393266;19;20464;-77
2023/10/11 09:37:57;;;;;;;14.48;7.20;;;;;;;;;;7372715;19;20033;-77
2023/10/11 09:40:42;;;;;;;12.57;6.07;;;;;;;;;;7376234;19;20011;-77
2023/10/11 09:43:10;;;;;;;12.65;6.40;;;;;;;;;;7374486;19;20014;-77
2023/10/11 09:45:44;;;;;;;20.00;6.10;;;;;;;;;;7374693;19;20022;-77
2023/10/11 09:48:17;;;;;;;16.55;5.80;;;;;;;;;;7375892;19;20630;-77
2023/10/11 09:50:43;;;;;;;11.98;5.97;;;;;;;;;;7394262;19;20407;-77
2023/10/11 09:53:12;;;;;;;15.95;5.88;;;;;;;;;;7370632;19;20003;-77
2023/10/11 09:56:26;;;;;;;21.27;6.45;;;;;;;;;;7369833;19;20007;-77
2023/10/11 09:58:57;;;;;;;14.45;6.20;;;;;;;;;;7373665;19;20006;-77
2023/10/11 10:01:55;;;;;;;13.77;6.05;;;;;;;;;;7372534;19;20074;-77
2023/10/11 10:04:49;;;;;;;14.93;6.63;;;;;;;;;;7370308;19;20014;-77
2023/10/11 10:07:25;;;;;;;16.45;6.25;;;;;;;;;;7372714;19;20019;-76
2023/10/11 10:10:01;;;;;;;14.43;5.78;;;;;;;;;;7369575;19;20461;-77
2023/10/11 10:12:32;;;;;;;11.20;5.53;;;;;;;;;;7369075;19;20030;-77
2023/10/11 10:15:03;;;;;;;17.48;6.25;;;;;;;;;;7369343;19;20013;-77
2023/10/11 10:17:29;;;;;;;14.63;5.55;;;;;;;;;;7394537;19;20457;-77
2023/10/11 10:20:00;;;;;;;16.27;6.43;;;;;;;;;;7370544;19;20022;-77
2023/10/11 10:22:31;;;;;;;13.40;5.78;;;;;;;;;;7370838;19;20026;-77
2023/10/11 10:25:20;;;;;;;15.32;6.13;;;;;;;;;;7370845;19;20090;-77
2023/10/11 10:27:46;;;;;;;18.42;6.43;;;;;;;;;;7370525;19;20091;-77
2023/10/11 10:30:16;;;;;;;17.80;6.05;;;;;;;;;;7371530;19;20018;-75
2023/10/11 10:33:18;;;;;;;13.95;6.13;;;;;;;;;;7391245;19;20003;-75
2023/10/11 10:35:44;;;;;;;14.77;6.28;;;;;;;;;;7268277;19;2004278;-75
2023/10/11 10:38:09;;;;;;;17.08;6.18;;;;;;;;;;7394291;19;20019;-75
2023/10/11 10:40:37;;;;;;;13.25;6.13;;;;;;;;;;7369817;19;20341;-75
2023/10/11 10:43:21;;;;;;;17.67;6.30;;;;;;;;;;7368242;19;20040;-75
2023/10/11 10:45:50;;;;;;;17.98;5.55;;;;;;;;;;7369734;19;20010;-75
2023/10/11 10:48:23;;;;;;;16.33;6.07;;;;;;;;;;7369387;19;20010;-75
2023/10/11 10:50:50;;;;;;;17.77;5.82;;;;;;;;;;7370030;19;20021;-76
2023/10/11 10:53:16;;;;;;;13.93;5.60;;;;;;;;;;7389822;19;20106;-76
2023/10/11 10:55:45;;;;;;;16.33;6.82;;;;;;;;;;7368459;19;20015;-75
2023/10/11 10:58:18;;;;;;;14.80;5.68;;;;;;;;;;7374172;19;20025;-76
2023/10/11 11:00:44;;;;;;;16.17;5.60;;;;;;;;;;7373615;19;20046;-76
2023/10/11 11:03:31;;;;;;;13.70;5.57;;;;;;;;;;7371386;19;20027;-76
2023/10/11 11:05:58;;;;;;;15.07;5.40;;;;;;;;;;7370543;19;20006;-76
2023/10/11 11:08:27;;;;;;;13.40;5.05;;;;;;;;;;7397897;19;20063;-76
2023/10/11 11:14:15;;;;;;;11.90;4.93;;;;;;;;;;7364445;19;20026;-76
2023/10/11 11:16:44;;;;;;;12.88;4.88;;;;;;;;;;7366121;19;20357;-76
2023/10/11 11:19:16;;;;;;;13.43;5.32;;;;;;;;;;7365806;19;20008;-76
2023/10/11 11:21:46;;;;;;;19.73;5.30;;;;;;;;;;7365426;19;20582;-76
2023/10/11 11:24:19;;;;;;;16.13;4.93;;;;;;;;;;7366566;19;20519;-76
2023/10/11 11:26:45;;;;;;;13.38;5.35;;;;;;;;;;7391386;19;20689;-76
2023/10/11 11:29:29;;;;;;;10.93;4.65;;;;;;;;;;7368994;19;20582;-76
2023/10/11 11:31:59;;;;;;;19.40;4.60;;;;;;;;;;7365301;19;20021;-76
2023/10/11 11:34:28;;;;;;;13.55;5.10;;;;;;;;;;7367850;19;20045;-76
2023/10/11 11:37:04;;;;;;;18.50;5.50;;;;;;;;;;7370856;19;20469;-75
2023/10/11 11:42:01;;;;;;;12.35;4.60;;;;;;;;;;7368387;19;20026;-75
2023/10/11 11:44:31;;;;;;;11.68;4.30;;;;;;;;;;7389324;19;20003;-75
2023/10/11 11:47:04;;;;;;;;;;;;;;;;;;7369903;19;20053;-71
2023/10/11 11:49:29;;;;;;;11.18;4.20;;;;;;;;;;7367762;19;19928;-72
2023/10/11 11:51:55;;;;;;;13.55;4.50;;;;;;;;;;7368046;19;20066;-71
2023/10/11 11:54:22;;;;;;;9.93;4.47;;;;;;;;;;7358760;19;20018;-71
2023/10/11 11:56:54;;;;;;;11.43;4.40;;;;;;;;;;7368478;19;20011;-71
2023/10/11 11:59:21;;;;;;;17.15;4.70;;;;;;;;;;7389975;19;20006;-71
2023/10/11 12:01:59;;;;;;;12.30;4.50;;;;;;;;;;7365305;19;20015;-71
2023/10/11 12:04:32;;;;;;;10.75;4.13;;;;;;;;;;7361767;19;20114;-71
2023/10/11 12:07:09;;;;;;;8.90;4.13;;;;;;;;;;7367906;19;20242;-71
2023/10/11 12:09:36;;;;;;;13.57;4.53;;;;;;;;;;7367472;19;20333;-71
2023/10/11 12:12:04;;;;;;;24.20;12.82;;;;;;;;;;7366113;19;20026;-72
2023/10/11 12:14:30;;;;;;;15.55;5.47;;;;;;;;;;7385485;19;20003;-71
2023/10/11 12:16:56;;;;;;;15.40;4.57;;;;;;;;;;7366418;19;20006;-72
2023/10/11 12:19:22;;;;;;;14.57;4.15;;;;;;;;;;7367287;19;20006;-71
2023/10/11 12:21:49;;;;;;;11.27;4.40;;;;;;;;;;7365953;19;20011;-71
2023/10/11 12:24:14;;;;;;;12.25;4.55;;;;;;;;;;7364086;19;20002;-71
2023/10/11 12:26:43;;;;;;;11.50;4.30;;;;;;;;;;7387447;19;20006;-72
2023/10/11 12:29:12;;;;;;;12.38;4.25;;;;;;;;;;7365476;19;20463;-72
2023/10/11 12:31:41;;;;;;;11.48;4.75;;;;;;;;;;7365934;19;20039;-72
2023/10/11 12:34:10;;;;;;;11.50;4.30;;;;;;;;;;7366591;19;20002;-72
2023/10/11 12:36:39;;;;;;;14.07;4.45;;;;;;;;;;7368823;19;20081;-68
2023/10/11 12:39:06;;;;;;;11.77;4.45;;;;;;;;;;7367051;19;20002;-68
2023/10/11 12:41:31;;;;;;;9.15;4.10;;;;;;;;;;7389976;19;20010;-71
2023/10/11 12:43:56;;;;;;;15.25;4.45;;;;;;;;;;7370391;19;20013;-68
2023/10/11 12:46:22;;;;;;;12.33;4.10;;;;;;;;;;7373264;19;20006;-72
2023/10/11 12:48:54;;;;;;;11.40;4.60;;;;;;;;;;7379406;19;20238;-72
2023/10/11 12:51:21;;;;;;;13.23;4.70;;;;;;;;;;7380092;19;20023;-71
2023/10/11 12:53:46;;;;;;;9.18;3.70;;;;;;;;;;7388338;19;20026;-72
2023/10/11 12:56:12;;;;;;;13.98;4.57;;;;;;;;;;7389341;19;20013;-72
2023/10/11 12:58:40;;;;;;;12.68;4.03;;;;;;;;;;7372926;19;20025;-72
2023/10/11 13:01:11;;;;;;;12.48;4.10;;;;;;;;;;7373344;19;20033;-72
2023/10/11 13:03:38;;;;;;;12.00;4.28;;;;;;;;;;7367793;19;20439;-72
2023/10/11 13:06:09;;;;;;;12.60;4.10;;;;;;;;;;7370971;19;20009;-72
2023/10/11 13:08:37;;;;;;;13.40;4.30;;;;;;;;;;7394592;19;20019;-72
2023/10/11 13:11:05;;;;;;;14.68;3.92;;;;;;;;;;7370760;19;20023;-72
2023/10/11 13:13:32;;;;;;;12.93;4.05;;;;;;;;;;7370283;19;20396;-72
2023/10/11 13:16:01;;;;;;;13.10;4.30;;;;;;;;;;7371391;19;20082;-72
2023/10/11 13:18:33;;;;;;;10.52;4.00;;;;;;;;;;7372644;19;20010;-73
2023/10/11 13:20:59;;;;;;;11.02;4.25;;;;;;;;;;7372964;19;20003;-72
2023/10/11 13:23:28;;;;;;;11.77;4.35;;;;;;;;;;7390065;19;20007;-72
2023/10/11 13:26:06;;;;;;;12.73;4.27;;;;;;;;;;7371050;19;20018;-72
2023/10/11 13:28:33;;;;;;;13.85;4.25;;;;;;;;;;7371174;19;20034;-72
2023/10/11 13:31:01;;;;;;;9.30;3.78;;;;;;;;;;7375810;19;20003;-72
2023/10/11 13:33:30;;;;;;;12.48;4.18;;;;;;;;;;7372130;19;20014;-72
2023/10/11 13:35:57;;;;;;;14.70;4.35;;;;;;;;;;7373460;19;20590;-72
2023/10/11 13:38:22;;;;;;;15.27;4.15;;;;;;;;;;7398175;19;20010;-72
2023/10/11 13:40:50;;;;;;;12.05;3.70;;;;;;;;;;7374841;19;20015;-72
2023/10/11 13:43:16;;;;;;;12.32;4.07;;;;;;;;;;7372876;19;20015;-73
2023/10/11 13:46:01;;;;;;;10.13;3.70;;;;;;;;;;7371985;19;20400;-73
2023/10/11 13:48:28;;;;;;;12.00;3.97;;;;;;;;;;7371783;19;20015;-72
2023/10/11 13:50:54;;;;;;;16.25;4.25;;;;;;;;;;7371742;19;20070;-72
2023/10/11 13:53:20;;;;;;;14.52;4.68;;;;;;;;;;7390299;19;20023;-73
2023/10/11 13:55:50;;;;;;;11.18;4.40;;;;;;;;;;7369215;19;20025;-73
2023/10/11 13:58:16;;;;;;;15.00;4.10;;;;;;;;;;7372833;19;20069;-72
2023/10/11 14:05:45;;;;;;;11.88;4.38;;;;;;;;;;7393058;19;20579;-73
2023/10/11 14:10:48;;;;;;;14.65;4.20;;;;;;;;;;7371191;19;19928;-72
2023/10/11 14:13:13;;;;;;;13.25;4.32;;;;;;;;;;7368059;19;20010;-72
2023/10/11 14:15:39;;;;;;;12.80;4.10;;;;;;;;;;7369984;19;20014;-72
2023/10/11 14:18:11;;;;;;;14.40;4.10;;;;;;;;;;7371587;19;20256;-72
2023/10/11 14:20:36;;;;;;;14.70;4.20;;;;;;;;;;7393085;19;20010;-73
2023/10/11 14:23:04;;;;;;;14.23;4.68;;;;;;;;;;7368490;19;20732;-72
2023/10/11 14:25:30;;;;;;;10.90;4.63;;;;;;;;;;7370847;19;20033;-73
2023/10/11 14:27:55;;;;;;;11.80;4.07;;;;;;;;;;7371033;19;20904;-73
2023/10/11 14:30:21;;;;;;;13.23;4.20;;;;;;;;;;7369793;19;20011;-73
2023/10/11 14:32:46;;;;;;;8.35;3.55;;;;;;;;;;7384663;19;20376;-72
2023/10/11 14:35:13;;;;;;;10.55;4.10;;;;;;;;;;7375466;19;20374;-73
2023/10/11 14:37:40;;;;;;;13.52;4.25;;;;;;;;;;7369935;19;20010;-73
2023/10/11 14:40:14;;;;;;;13.60;4.30;;;;;;;;;;7370170;19;20010;-72
2023/10/11 14:42:43;;;;;;;15.70;4.55;;;;;;;;;;7369244;19;20019;-72
2023/10/11 14:45:11;;;;;;;15.10;4.32;;;;;;;;;;7368952;19;20027;-71
2023/10/11 14:47:45;;;;;;;12.00;3.97;;;;;;;;;;7391566;19;20373;-72
2023/10/11 14:50:13;;;;;;;16.15;4.55;;;;;;;;;;7369750;19;20761;-72
2023/10/11 14:52:40;;;;;;;14.70;4.82;;;;;;;;;;7366746;19;20035;-72
2023/10/11 14:55:16;;;;;;;15.30;4.90;;;;;;;;;;7368958;19;20399;-72
2023/10/11 14:57:49;;;;;;;13.30;4.40;;;;;;;;;;7370384;19;20013;-72
2023/10/11 15:00:16;;;;;;;17.20;3.92;;;;;;;;;;7373841;19;20007;-72
2023/10/11 15:02:43;;;;;;;16.25;4.97;;;;;;;;;;7412285;19;20027;-73
2023/10/11 15:05:09;;;;;;;12.48;3.85;;;;;;;;;;7402195;19;20015;-74
2023/10/11 15:07:34;;;;;;;14.93;4.30;;;;;;;;;;7375822;19;20472;-72
2023/10/11 15:09:59;;;;;;;15.20;4.15;;;;;;;;;;7369378;19;20006;-72
2023/10/11 15:12:25;;;;;;;14.57;4.22;;;;;;;;;;7368258;19;20439;-72
2023/10/11 15:14:50;;;;;;;12.95;4.45;;;;;;;;;;7367338;19;20022;-73
2023/10/11 15:17:18;;;;;;;19.45;4.20;;;;;;;;;;7389582;19;20334;-72
2023/10/11 15:19:44;;;;;;;19.23;4.50;;;;;;;;;;7367925;19;20758;-72
2023/10/11 15:22:12;;;;;;;13.73;4.47;;;;;;;;;;7368760;19;20101;-72
2023/10/11 15:24:39;;;;;;;12.80;4.47;;;;;;;;;;7367261;19;20006;-71
2023/10/11 15:27:04;;;;;;;12.35;4.35;;;;;;;;;;7369407;19;20006;-71
2023/10/11 15:29:30;;;;;;;14.90;4.93;;;;;;;;;;7390710;19;20003;-71
2023/10/11 15:31:55;;;;;;;12.93;4.13;;;;;;;;;;7366245;19;20019;-71
2023/10/11 15:34:21;;;;;;;12.80;4.13;;;;;;;;;;7365398;19;20006;-74
2023/10/11 15:36:49;;;;;;;14.35;4.38;;;;;;;;;;7361989;19;20565;-70
2023/10/11 15:39:16;;;;;;;10.88;4.22;;;;;;;;;;7363698;19;20031;-70
2023/10/11 15:41:43;;;;;;;16.45;4.15;;;;;;;;;;7389487;19;20452;-70
2023/10/11 15:44:15;;;;;;;18.80;4.95;;;;;;;;;;7367363;19;20006;-69
2023/10/11 15:46:40;;;;;;;15.90;4.28;;;;;;;;;;7367352;19;20002;-69